createdAt,value
2022-12-31T00:01:18.074Z,6.21
2022-12-31T00:03:48.031Z,6.19
2022-12-31T00:06:18.967Z,6.17
2022-12-31T00:08:48.177Z,6.16
2022-12-31T00:11:16.638Z,6.15
2022-12-31T00:13:46.794Z,6.16
2022-12-31T00:16:16.894Z,6.18
2022-12-31T00:18:47.810Z,6.19
2022-12-31T00:21:17.070Z,6.18
2022-12-31T00:23:45.485Z,6.19
2022-12-31T00:26:17.510Z,6.20
2022-12-31T00:28:46.712Z,6.20
2022-12-31T00:31:17.113Z,6.21
2022-12-31T00:33:47.494Z,6.23
2022-12-31T00:36:19.406Z,6.24
2022-12-31T00:38:49.776Z,6.25
2022-12-31T00:41:19.168Z,6.24
2022-12-31T00:43:48.107Z,6.25
2022-12-31T00:46:17.014Z,6.24
2022-12-31T00:48:48.257Z,6.27
2022-12-31T00:51:19.137Z,6.25
2022-12-31T00:53:47.417Z,6.26
2022-12-31T00:56:19.699Z,6.27
2022-12-31T00:58:48.513Z,6.26
2022-12-31T01:01:19.049Z,6.25
2022-12-31T01:03:51.159Z,6.22
2022-12-31T01:06:20.466Z,6.20
2022-12-31T01:08:50.880Z,6.20
2022-12-31T01:11:23.342Z,6.18
2022-12-31T01:13:54.166Z,6.18
2022-12-31T01:16:23.811Z,6.17
2022-12-31T01:18:54.228Z,6.16
2022-12-31T01:21:25.528Z,6.14
2022-12-31T01:23:53.720Z,6.12
2022-12-31T01:26:22.559Z,6.10
2022-12-31T01:28:51.023Z,6.07
2022-12-31T01:31:21.625Z,6.04
2022-12-31T01:33:51.721Z,6.05
2022-12-31T01:36:26.327Z,6.02
2022-12-31T01:38:55.114Z,6.01
2022-12-31T01:41:25.969Z,5.99
2022-12-31T01:43:56.446Z,5.97
2022-12-31T01:46:37.130Z,5.92
2022-12-31T01:49:12.274Z,5.92
2022-12-31T01:51:45.253Z,5.90
2022-12-31T01:54:16.531Z,5.89
2022-12-31T01:56:46.872Z,5.89
2022-12-31T01:59:18.409Z,5.91
2022-12-31T02:01:48.940Z,5.94
2022-12-31T02:04:17.965Z,5.92
2022-12-31T02:06:52.731Z,5.89
2022-12-31T02:09:21.455Z,5.89
2022-12-31T02:11:49.736Z,5.86
2022-12-31T02:14:20.715Z,5.83
2022-12-31T02:16:57.654Z,5.81
2022-12-31T02:20:03.339Z,5.80
2022-12-31T02:23:01.041Z,5.79
2022-12-31T02:25:45.511Z,5.79
2022-12-31T02:28:29.821Z,5.77
2022-12-31T02:31:04.481Z,5.75
2022-12-31T02:33:38.546Z,5.70
2022-12-31T02:36:11.693Z,5.70
2022-12-31T02:38:43.995Z,5.70
2022-12-31T02:41:34.121Z,5.71
2022-12-31T02:44:02.394Z,5.70
2022-12-31T02:46:44.282Z,5.70
2022-12-31T02:49:22.856Z,5.69
2022-12-31T02:51:58.837Z,5.69
2022-12-31T02:54:37.555Z,5.69
2022-12-31T02:57:12.257Z,5.68
2022-12-31T03:00:07.440Z,5.71
2022-12-31T03:02:43.430Z,5.72
2022-12-31T03:05:13.522Z,5.73
2022-12-31T03:07:43.308Z,5.76
2022-12-31T03:10:12.023Z,5.76
2022-12-31T03:12:47.556Z,5.75
2022-12-31T03:15:21.461Z,5.76
2022-12-31T03:17:57.344Z,5.77
2022-12-31T03:20:45.732Z,5.78
2022-12-31T03:23:17.183Z,5.75
2022-12-31T03:25:44.382Z,5.72
2022-12-31T03:28:14.727Z,5.70
2022-12-31T03:30:45.685Z,5.67
2022-12-31T03:33:15.900Z,5.66
2022-12-31T03:35:44.277Z,5.67
2022-12-31T03:38:13.084Z,5.67
2022-12-31T03:40:42.761Z,5.66
2022-12-31T03:43:11.296Z,5.64
2022-12-31T03:45:41.294Z,5.64
2022-12-31T03:48:11.029Z,5.66
2022-12-31T03:50:40.887Z,5.67
2022-12-31T03:53:09.247Z,5.70
2022-12-31T03:55:37.465Z,5.67
2022-12-31T03:58:05.730Z,5.66
2022-12-31T04:00:33.857Z,5.65
2022-12-31T04:03:02.183Z,5.66
2022-12-31T04:05:32.417Z,5.66
2022-12-31T04:08:03.285Z,5.70
2022-12-31T04:10:31.593Z,5.71
2022-12-31T04:13:00.623Z,5.70
2022-12-31T04:15:28.880Z,5.70
2022-12-31T04:17:57.074Z,5.70
2022-12-31T04:20:25.248Z,5.69
2022-12-31T04:22:53.620Z,5.70
2022-12-31T04:25:23.265Z,5.70
2022-12-31T04:27:51.677Z,5.70
2022-12-31T04:30:20.319Z,5.69
2022-12-31T04:32:48.624Z,5.69
2022-12-31T04:35:18.075Z,5.71
2022-12-31T04:37:47.373Z,5.70
2022-12-31T04:40:15.583Z,5.70
2022-12-31T04:42:45.162Z,5.66
2022-12-31T04:45:13.537Z,5.62
2022-12-31T04:47:41.939Z,5.62
2022-12-31T04:50:10.502Z,5.62
2022-12-31T04:52:42.673Z,5.65
2022-12-31T04:55:12.049Z,5.66
2022-12-31T04:57:40.533Z,5.69
2022-12-31T05:00:11.648Z,5.70
2022-12-31T05:02:40.070Z,5.67
2022-12-31T05:05:09.166Z,5.66
2022-12-31T05:07:37.237Z,5.69
2022-12-31T05:10:06.386Z,5.71
2022-12-31T05:12:34.724Z,5.72
2022-12-31T05:15:03.032Z,5.76
2022-12-31T05:17:32.822Z,5.77
2022-12-31T05:20:01.041Z,5.79
2022-12-31T05:22:32.109Z,5.79
2022-12-31T05:25:01.761Z,5.80
2022-12-31T05:27:31.685Z,5.82
2022-12-31T05:30:00.372Z,5.81
2022-12-31T05:32:28.774Z,5.82
2022-12-31T05:34:59.833Z,5.81
2022-12-31T05:37:29.596Z,5.83
2022-12-31T05:39:58.442Z,5.84
2022-12-31T05:42:27.147Z,5.85
2022-12-31T05:44:55.500Z,5.86
2022-12-31T05:47:23.907Z,5.88
2022-12-31T05:49:52.063Z,5.91
2022-12-31T05:52:21.870Z,5.91
2022-12-31T05:54:50.155Z,5.88
2022-12-31T05:57:18.476Z,5.88
2022-12-31T05:59:46.749Z,5.89
2022-12-31T06:02:14.864Z,5.88
2022-12-31T06:04:43.557Z,5.90
2022-12-31T06:07:11.673Z,5.92
2022-12-31T06:09:41.765Z,5.94
2022-12-31T06:12:10.763Z,5.95
2022-12-31T06:14:45.252Z,5.91
2022-12-31T06:17:14.194Z,5.92
2022-12-31T06:19:42.329Z,5.89
2022-12-31T06:22:10.449Z,5.87
2022-12-31T06:24:38.628Z,5.88
2022-12-31T06:27:08.258Z,5.87
2022-12-31T06:29:36.582Z,5.88
2022-12-31T06:32:06.250Z,5.86
2022-12-31T06:34:34.741Z,5.87
2022-12-31T06:37:03.021Z,5.83
2022-12-31T06:39:31.538Z,5.81
2022-12-31T06:42:03.012Z,5.80
2022-12-31T06:44:32.513Z,5.76
2022-12-31T06:47:01.180Z,5.76
2022-12-31T06:49:29.529Z,5.78
2022-12-31T06:51:57.775Z,5.80
2022-12-31T06:54:26.061Z,5.83
2022-12-31T06:56:54.703Z,5.86
2022-12-31T06:59:26.646Z,5.87
2022-12-31T07:02:13.831Z,5.90
2022-12-31T07:05:20.750Z,5.90
2022-12-31T07:07:59.437Z,5.90
2022-12-31T07:10:41.081Z,5.92
2022-12-31T07:13:41.458Z,5.91
2022-12-31T07:16:23.638Z,5.92
2022-12-31T07:19:03.228Z,5.88
2022-12-31T07:21:35.194Z,5.84
2022-12-31T07:24:04.218Z,5.79
2022-12-31T07:26:52.576Z,5.78
2022-12-31T07:29:30.728Z,5.76
2022-12-31T07:32:12.688Z,5.75
2022-12-31T07:34:53.200Z,5.76
2022-12-31T07:37:32.679Z,5.80
2022-12-31T07:40:09.786Z,5.80
2022-12-31T07:42:42.300Z,5.81
2022-12-31T07:45:19.441Z,5.83
2022-12-31T07:47:48.059Z,5.85
2022-12-31T07:50:19.668Z,5.86
2022-12-31T07:52:48.778Z,5.86
2022-12-31T07:55:17.353Z,5.86
2022-12-31T07:57:54.007Z,5.88
2022-12-31T08:00:23.268Z,5.90
2022-12-31T08:03:17.448Z,5.91
2022-12-31T08:05:54.225Z,5.92
2022-12-31T08:08:34.383Z,5.90
2022-12-31T08:11:13.912Z,5.91
2022-12-31T08:13:44.980Z,5.90
2022-12-31T08:16:14.781Z,5.86
2022-12-31T08:18:43.329Z,5.89
2022-12-31T08:21:32.770Z,5.90
2022-12-31T08:24:15.315Z,5.87
2022-12-31T08:26:54.163Z,5.89
2022-12-31T08:29:35.692Z,5.88
2022-12-31T08:32:13.718Z,5.85
2022-12-31T08:34:53.788Z,5.87
2022-12-31T08:37:33.388Z,5.88
2022-12-31T08:40:15.347Z,5.90
2022-12-31T08:42:52.995Z,5.89
2022-12-31T08:45:28.472Z,5.87
2022-12-31T08:48:04.783Z,5.90
2022-12-31T08:50:35.059Z,5.92
2022-12-31T08:53:07.827Z,5.95
2022-12-31T08:55:36.875Z,5.90
2022-12-31T08:58:17.101Z,5.95
2022-12-31T09:00:44.956Z,5.96
2022-12-31T09:03:37.680Z,5.94
2022-12-31T09:06:16.030Z,5.95
2022-12-31T09:08:52.806Z,5.94
2022-12-31T09:11:26.361Z,5.97
2022-12-31T09:14:22.794Z,5.99
2022-12-31T09:17:02.250Z,5.98
2022-12-31T09:19:32.445Z,5.98
2022-12-31T09:22:00.570Z,6.01
2022-12-31T09:24:30.903Z,6.01
2022-12-31T09:27:07.450Z,6.04
2022-12-31T09:29:52.015Z,6.05
2022-12-31T09:32:27.331Z,6.09
2022-12-31T09:34:59.265Z,6.07
2022-12-31T09:37:39.763Z,6.04
2022-12-31T09:40:31.269Z,6.07
2022-12-31T09:43:18.255Z,6.07
2022-12-31T09:46:11.835Z,6.08
2022-12-31T09:49:10.339Z,6.10
2022-12-31T09:51:46.477Z,6.14
2022-12-31T09:54:29.407Z,6.16
2022-12-31T09:57:22.928Z,6.19
2022-12-31T09:59:59.268Z,6.24
2022-12-31T10:02:45.529Z,6.31
2022-12-31T10:05:37.762Z,6.38
2022-12-31T10:08:14.533Z,6.42
2022-12-31T10:10:51.367Z,6.45
2022-12-31T10:13:37.639Z,6.52
2022-12-31T10:16:41.602Z,6.59
2022-12-31T10:19:37.492Z,6.66
2022-12-31T10:22:25.629Z,6.69
2022-12-31T10:25:15.893Z,6.72
2022-12-31T10:27:52.920Z,6.73
2022-12-31T10:30:26.774Z,6.75
2022-12-31T10:33:08.053Z,6.75
2022-12-31T10:35:43.943Z,6.75
2022-12-31T10:38:24.942Z,6.74
2022-12-31T10:41:28.172Z,6.72
2022-12-31T10:44:37.971Z,6.69
2022-12-31T10:47:35.753Z,6.71
2022-12-31T10:50:39.751Z,6.73
2022-12-31T10:53:48.239Z,6.78
2022-12-31T10:56:54.454Z,6.82
2022-12-31T10:59:55.380Z,6.88
2022-12-31T11:02:58.474Z,6.96
2022-12-31T11:05:54.638Z,7.05
2022-12-31T11:08:46.180Z,7.18
2022-12-31T11:11:32.190Z,7.24
2022-12-31T11:14:48.804Z,7.29
2022-12-31T11:17:35.804Z,7.35
2022-12-31T11:20:44.264Z,7.39
2022-12-31T11:23:28.636Z,7.38
2022-12-31T11:26:08.104Z,7.36
2022-12-31T11:28:50.846Z,7.37
2022-12-31T11:31:34.038Z,7.40
2022-12-31T11:34:23.437Z,7.38
2022-12-31T11:37:12.331Z,7.38
2022-12-31T11:39:51.268Z,7.40
2022-12-31T11:42:33.614Z,7.42
2022-12-31T11:45:16.553Z,7.45
2022-12-31T11:50:58.108Z,7.63
2022-12-31T11:53:41.425Z,7.70
2022-12-31T11:56:19.898Z,7.84
2022-12-31T11:58:50.560Z,7.95
2022-12-31T12:01:23.529Z,8.00
2022-12-31T12:03:52.067Z,7.97
2022-12-31T12:06:28.695Z,7.95
2022-12-31T12:09:02.837Z,7.96
2022-12-31T12:11:36.116Z,8.01
2022-12-31T12:14:23.167Z,8.05
2022-12-31T12:17:00.824Z,8.03
2022-12-31T12:19:34.999Z,8.01
2022-12-31T12:22:12.252Z,8.02
2022-12-31T12:24:54.414Z,8.08
2022-12-31T12:27:29.507Z,8.16
2022-12-31T12:29:57.742Z,8.26
2022-12-31T12:32:27.976Z,8.32
2022-12-31T12:34:56.350Z,8.31
2022-12-31T12:37:33.105Z,8.33
2022-12-31T12:40:10.243Z,8.40
2022-12-31T12:42:52.056Z,8.44
2022-12-31T12:45:22.333Z,8.49
2022-12-31T12:47:55.991Z,8.54
2022-12-31T12:50:27.883Z,8.54
2022-12-31T12:53:26.204Z,8.45
2022-12-31T12:56:10.528Z,8.45
2022-12-31T12:58:52.376Z,8.44
2022-12-31T13:01:35.222Z,8.47
2022-12-31T13:04:35.791Z,8.45
2022-12-31T13:07:16.210Z,8.37
2022-12-31T13:09:55.645Z,8.35
2022-12-31T13:12:56.799Z,8.40
2022-12-31T13:15:30.849Z,8.43
2022-12-31T13:18:13.510Z,8.42
2022-12-31T13:20:49.137Z,8.46
2022-12-31T13:23:23.873Z,8.45
2022-12-31T13:26:04.817Z,8.43
2022-12-31T13:28:39.112Z,8.43
2022-12-31T13:31:13.667Z,8.43
2022-12-31T13:33:46.063Z,8.46
2022-12-31T13:36:18.345Z,8.59
2022-12-31T13:38:49.890Z,8.69
2022-12-31T13:41:22.800Z,8.78
2022-12-31T13:43:58.203Z,8.95
2022-12-31T13:46:35.302Z,9.06
2022-12-31T13:49:06.769Z,9.03
2022-12-31T13:51:43.069Z,8.96
2022-12-31T13:54:22.572Z,8.94
2022-12-31T13:56:53.053Z,8.92
2022-12-31T13:59:28.471Z,8.86
2022-12-31T14:02:10.122Z,8.85
2022-12-31T14:04:43.585Z,8.89
2022-12-31T14:07:17.809Z,8.90
2022-12-31T14:09:46.661Z,8.87
2022-12-31T14:12:31.476Z,8.92
2022-12-31T14:15:15.384Z,8.86
2022-12-31T14:17:49.315Z,8.82
2022-12-31T14:20:25.416Z,8.80
2022-12-31T14:23:08.537Z,8.79
2022-12-31T14:25:39.939Z,8.70
2022-12-31T14:28:16.238Z,8.60
2022-12-31T14:30:50.680Z,8.58
2022-12-31T14:33:44.855Z,8.57
2022-12-31T14:36:27.783Z,8.57
2022-12-31T14:39:07.440Z,8.58
2022-12-31T14:42:04.421Z,8.56
2022-12-31T14:44:52.051Z,8.56
2022-12-31T14:47:38.012Z,8.64
2022-12-31T14:50:11.797Z,8.70
2022-12-31T14:52:51.222Z,8.80
2022-12-31T14:55:30.494Z,8.95
2022-12-31T15:01:00.872Z,8.98
2022-12-31T15:03:46.318Z,8.94
2022-12-31T15:06:35.571Z,8.97
2022-12-31T15:09:24.314Z,8.99
2022-12-31T15:12:19.081Z,8.97
2022-12-31T15:15:09.864Z,8.97
2022-12-31T15:17:50.045Z,9.00
2022-12-31T15:20:36.115Z,9.06
2022-12-31T15:23:04.977Z,9.10
2022-12-31T15:25:40.451Z,9.12
2022-12-31T15:28:38.053Z,9.06
2022-12-31T15:31:19.289Z,8.97
2022-12-31T15:34:00.302Z,8.80
2022-12-31T15:36:31.844Z,8.68
2022-12-31T15:39:42.143Z,8.57
2022-12-31T15:42:38.142Z,8.55
2022-12-31T15:45:12.995Z,8.45
2022-12-31T15:47:48.119Z,8.40
2022-12-31T15:50:20.522Z,8.36
2022-12-31T15:52:54.304Z,8.33
2022-12-31T15:55:30.496Z,8.29
2022-12-31T15:58:03.654Z,8.23
2022-12-31T16:00:50.318Z,8.10
2022-12-31T16:03:25.690Z,8.01
2022-12-31T16:05:59.483Z,7.90
2022-12-31T16:08:32.635Z,7.76
2022-12-31T16:11:01.638Z,7.65
2022-12-31T16:13:31.189Z,7.54
2022-12-31T16:16:04.871Z,7.47
2022-12-31T16:18:42.629Z,7.39
2022-12-31T16:21:25.902Z,7.29
2022-12-31T16:24:02.679Z,7.17
2022-12-31T16:26:38.477Z,7.07
2022-12-31T16:29:15.888Z,6.97
2022-12-31T16:31:44.825Z,6.87
2022-12-31T16:34:16.389Z,6.78
2022-12-31T16:36:56.240Z,6.69
2022-12-31T16:39:32.214Z,6.65
2022-12-31T16:42:22.716Z,6.65
2022-12-31T16:44:52.717Z,6.69
2022-12-31T16:47:24.713Z,6.73
2022-12-31T16:50:02.062Z,6.70
2022-12-31T16:52:33.996Z,6.73
2022-12-31T16:55:12.224Z,6.74
2022-12-31T16:57:47.037Z,6.78
2022-12-31T17:00:19.239Z,6.78
2022-12-31T17:02:59.796Z,6.80
2022-12-31T17:05:35.554Z,6.81
2022-12-31T17:08:24.322Z,6.82
2022-12-31T17:10:54.223Z,6.82
2022-12-31T17:13:27.707Z,6.80
2022-12-31T17:15:59.657Z,6.79
2022-12-31T17:18:31.793Z,6.76
2022-12-31T17:21:12.279Z,6.80
2022-12-31T17:23:42.914Z,6.78
2022-12-31T17:26:14.847Z,6.79
2022-12-31T17:28:46.105Z,6.74
2022-12-31T17:31:32.533Z,6.74
2022-12-31T17:34:22.752Z,6.77
2022-12-31T17:36:55.812Z,6.81
2022-12-31T17:39:25.843Z,6.84
2022-12-31T17:41:57.382Z,6.88
2022-12-31T17:44:29.470Z,6.88
2022-12-31T17:46:58.019Z,6.89
2022-12-31T17:49:32.181Z,6.92
2022-12-31T17:52:00.539Z,6.90
2022-12-31T17:54:28.734Z,6.86
2022-12-31T17:57:03.543Z,6.81
2022-12-31T17:59:37.607Z,6.73
2022-12-31T18:02:13.128Z,6.69
2022-12-31T18:04:41.842Z,6.67
2022-12-31T18:07:10.183Z,6.66
2022-12-31T18:09:38.427Z,6.68
2022-12-31T18:12:09.740Z,6.67
2022-12-31T18:14:37.883Z,6.60
2022-12-31T18:17:18.045Z,6.53
2022-12-31T18:20:04.359Z,6.54
2022-12-31T18:22:33.658Z,6.58
2022-12-31T18:25:01.860Z,6.64
2022-12-31T18:27:32.443Z,6.67
2022-12-31T18:30:04.542Z,6.71
2022-12-31T18:32:34.304Z,6.75
2022-12-31T18:35:04.286Z,6.80
2022-12-31T18:37:34.768Z,6.83
2022-12-31T18:40:03.152Z,6.87
2022-12-31T18:42:35.732Z,6.87
2022-12-31T18:45:04.823Z,6.88
2022-12-31T18:47:37.649Z,6.90
2022-12-31T18:50:07.538Z,6.86
2022-12-31T18:52:36.212Z,6.82
2022-12-31T18:55:25.444Z,6.82
2022-12-31T18:57:55.536Z,6.80
2022-12-31T19:00:23.957Z,6.80
2022-12-31T19:02:52.380Z,6.77
2022-12-31T19:05:26.086Z,6.76
2022-12-31T19:07:54.462Z,6.77
2022-12-31T19:10:22.974Z,6.79
2022-12-31T19:12:51.524Z,6.82
2022-12-31T19:15:31.125Z,6.85
2022-12-31T19:17:59.662Z,6.86
2022-12-31T19:20:28.082Z,6.86
2022-12-31T19:22:57.125Z,6.85
2022-12-31T19:25:27.828Z,6.87
2022-12-31T19:27:56.087Z,6.92
2022-12-31T19:30:28.682Z,6.94
2022-12-31T19:32:57.045Z,6.93
2022-12-31T19:35:25.941Z,6.95
2022-12-31T19:37:55.758Z,6.96
2022-12-31T19:40:27.087Z,6.98
2022-12-31T19:42:56.515Z,6.98
2022-12-31T19:45:27.327Z,7.01
2022-12-31T19:47:58.153Z,6.98
2022-12-31T19:50:31.861Z,6.96
2022-12-31T19:53:00.650Z,6.95
2022-12-31T19:55:28.767Z,6.97
2022-12-31T19:57:56.966Z,6.97
2022-12-31T20:00:25.063Z,6.98
2022-12-31T20:02:56.674Z,7.00
2022-12-31T20:05:25.713Z,7.00
2022-12-31T20:07:54.061Z,7.00
2022-12-31T20:10:22.265Z,6.95
2022-12-31T20:12:50.427Z,6.93
2022-12-31T20:15:20.990Z,6.91
2022-12-31T20:17:52.063Z,6.89
2022-12-31T20:20:21.758Z,6.87
2022-12-31T20:22:51.545Z,6.88
2022-12-31T20:25:20.011Z,6.88
2022-12-31T20:27:48.296Z,6.90
2022-12-31T20:30:20.023Z,6.86
2022-12-31T20:32:48.428Z,6.76
2022-12-31T20:35:18.452Z,6.65
2022-12-31T20:37:48.053Z,6.52
2022-12-31T20:40:16.407Z,6.52
2022-12-31T20:42:46.550Z,6.51
2022-12-31T20:45:14.733Z,6.52
2022-12-31T20:47:43.389Z,6.47
2022-12-31T20:50:12.677Z,6.42
2022-12-31T20:52:41.614Z,6.41
2022-12-31T20:55:19.327Z,6.42
2022-12-31T20:57:47.756Z,6.43
2022-12-31T21:00:19.490Z,6.42
2022-12-31T21:02:57.586Z,6.40
2022-12-31T21:05:32.654Z,6.39
2022-12-31T21:08:00.854Z,6.37
2022-12-31T21:10:30.809Z,6.37
2022-12-31T21:12:57.793Z,6.36
2022-12-31T21:15:26.278Z,6.33
2022-12-31T21:17:57.134Z,6.34
2022-12-31T21:20:26.449Z,6.32
2022-12-31T21:22:55.075Z,6.29
2022-12-31T21:25:23.363Z,6.26
2022-12-31T21:27:59.377Z,6.20
2022-12-31T21:30:27.464Z,6.17
2022-12-31T21:32:56.026Z,6.16
2022-12-31T21:35:42.696Z,6.13
2022-12-31T21:38:12.787Z,6.13
2022-12-31T21:40:44.862Z,6.11
2022-12-31T21:43:15.794Z,6.11
2022-12-31T21:45:44.692Z,6.10
2022-12-31T21:48:25.127Z,6.11
2022-12-31T21:50:54.987Z,6.10
2022-12-31T21:53:30.444Z,6.08
2022-12-31T21:56:09.888Z,6.08
2022-12-31T21:58:44.476Z,6.08
2022-12-31T22:01:35.313Z,6.09
2022-12-31T22:04:04.272Z,6.11
2022-12-31T22:06:36.974Z,6.15
2022-12-31T22:09:07.961Z,6.18
2022-12-31T22:11:37.326Z,6.18
2022-12-31T22:14:08.261Z,6.19
2022-12-31T22:16:37.635Z,6.19
2022-12-31T22:19:06.388Z,6.18
2022-12-31T22:21:34.601Z,6.19
2022-12-31T22:24:03.826Z,6.21
2022-12-31T22:26:32.373Z,6.24
2022-12-31T22:29:01.228Z,6.21
2022-12-31T22:31:31.737Z,6.22
2022-12-31T22:34:02.052Z,6.24
2022-12-31T22:36:30.296Z,6.22
2022-12-31T22:38:59.237Z,6.22
2022-12-31T22:41:29.555Z,6.20
2022-12-31T22:44:03.975Z,6.17
2022-12-31T22:46:42.347Z,6.21
2022-12-31T22:49:11.792Z,6.21
2022-12-31T22:51:57.670Z,6.20
2022-12-31T22:54:26.997Z,6.13
2022-12-31T22:56:55.804Z,6.10
2022-12-31T22:59:25.311Z,6.07
2022-12-31T23:01:57.728Z,6.03
2022-12-31T23:04:27.505Z,5.98
2022-12-31T23:06:56.962Z,5.95
2022-12-31T23:09:43.118Z,5.91
2022-12-31T23:12:12.096Z,5.87
2022-12-31T23:14:57.436Z,5.86
2022-12-31T23:17:46.353Z,5.86
2022-12-31T23:20:34.681Z,5.86
2022-12-31T23:23:12.918Z,5.90
2022-12-31T23:25:43.841Z,5.97
2022-12-31T23:28:13.978Z,6.03
2022-12-31T23:30:43.458Z,6.08
2022-12-31T23:33:15.645Z,6.10
2022-12-31T23:35:44.542Z,6.12
2022-12-31T23:38:13.459Z,6.13
2022-12-31T23:40:42.718Z,6.15
2022-12-31T23:43:19.801Z,6.16
2022-12-31T23:45:51.069Z,6.18
2022-12-31T23:48:23.997Z,6.18
2022-12-31T23:50:54.391Z,6.19
2022-12-31T23:53:23.415Z,6.18
2022-12-31T23:55:52.167Z,6.20
2022-12-31T23:58:21.291Z,6.20
